createdAt,value
2023-05-14T00:00:40.555Z,8.59
2023-05-14T00:04:27.619Z,8.60
2023-05-14T00:08:15.300Z,8.63
2023-05-14T00:11:42.694Z,8.67
2023-05-14T00:15:03.299Z,8.67
2023-05-14T00:18:25.334Z,8.69
2023-05-14T00:25:54.308Z,8.66
2023-05-14T00:29:24.156Z,8.57
2023-05-14T00:32:41.264Z,8.49
2023-05-14T00:36:28.422Z,8.39
2023-05-14T00:40:19.314Z,8.30
2023-05-14T00:43:33.687Z,8.21
2023-05-14T00:47:23.319Z,8.11
2023-05-14T00:51:16.279Z,8.03
2023-05-14T00:55:08.281Z,7.93
2023-05-14T00:58:29.286Z,7.85
2023-05-14T01:02:02.957Z,7.80
2023-05-14T01:06:05.303Z,7.72
2023-05-14T01:09:21.657Z,7.66
2023-05-14T01:12:56.318Z,7.60
2023-05-14T01:19:53.288Z,7.57
2023-05-14T01:23:22.294Z,7.56
2023-05-14T01:26:58.326Z,7.56
2023-05-14T01:30:56.255Z,7.57
2023-05-14T01:33:55.472Z,7.61
2023-05-14T01:36:23.847Z,7.65
2023-05-14T01:39:21.331Z,7.68
2023-05-14T01:43:20.332Z,7.74
2023-05-14T01:47:21.334Z,7.76
2023-05-14T01:51:04.253Z,7.75
2023-05-14T01:54:16.315Z,7.69
2023-05-14T01:57:49.244Z,7.63
2023-05-14T02:01:20.371Z,7.55
2023-05-14T02:04:38.273Z,7.47
2023-05-14T02:07:53.347Z,7.39
2023-05-14T02:11:39.641Z,7.33
2023-05-14T02:15:12.333Z,7.26
2023-05-14T02:19:03.332Z,7.18
2023-05-14T02:22:49.307Z,7.12
2023-05-14T02:26:14.277Z,7.06
2023-05-14T02:29:58.308Z,6.99
2023-05-14T02:33:22.251Z,6.91
2023-05-14T02:36:49.314Z,6.82
2023-05-14T02:40:42.335Z,6.72
2023-05-14T02:44:22.296Z,6.64
2023-05-14T02:48:18.293Z,6.57
2023-05-14T02:52:26.318Z,6.56
2023-05-14T02:56:27.366Z,6.58
2023-05-14T03:00:22.462Z,6.63
2023-05-14T03:03:11.544Z,6.72
2023-05-14T03:05:39.918Z,6.82
2023-05-14T03:08:07.847Z,6.90
2023-05-14T03:11:11.637Z,6.99
2023-05-14T03:14:34.349Z,7.10
2023-05-14T03:18:16.399Z,7.22
2023-05-14T03:22:05.306Z,7.29
2023-05-14T03:25:14.160Z,7.31
2023-05-14T03:28:36.306Z,7.33
2023-05-14T03:32:30.321Z,7.36
2023-05-14T03:36:26.850Z,7.36
2023-05-14T03:40:21.869Z,7.35
2023-05-14T03:44:19.354Z,7.34
2023-05-14T03:51:53.311Z,7.32
2023-05-14T03:55:37.332Z,7.33
2023-05-14T03:59:26.268Z,7.33
2023-05-14T04:06:48.299Z,7.35
2023-05-14T04:10:57.342Z,7.40
2023-05-14T04:15:01.292Z,7.46
2023-05-14T04:18:59.376Z,7.55
2023-05-14T04:22:58.265Z,7.65
2023-05-14T04:26:59.355Z,7.75
2023-05-14T04:30:38.338Z,7.85
2023-05-14T04:34:28.310Z,7.92
2023-05-14T04:38:32.324Z,7.88
2023-05-14T04:42:47.299Z,8.10
2023-05-14T04:46:51.334Z,8.35
2023-05-14T04:50:23.477Z,8.57
2023-05-14T04:54:15.323Z,8.79
2023-05-14T04:58:01.321Z,9.09
2023-05-14T05:02:12.257Z,9.32
2023-05-14T05:05:43.313Z,9.59
2023-05-14T05:09:20.281Z,9.83
2023-05-14T05:13:32.322Z,10.03
2023-05-14T05:20:26.333Z,10.35
2023-05-14T05:24:04.373Z,10.45
2023-05-14T05:28:09.311Z,10.65
2023-05-14T05:31:20.382Z,10.87
2023-05-14T05:34:57.313Z,11.03
2023-05-14T05:38:49.286Z,11.23
2023-05-14T05:43:13.338Z,11.43
2023-05-14T05:46:42.286Z,11.59
2023-05-14T05:50:21.572Z,11.65
2023-05-14T05:54:12.319Z,11.77
2023-05-14T06:01:27.354Z,11.86
2023-05-14T06:05:14.390Z,11.90
2023-05-14T06:08:27.332Z,11.98
2023-05-14T06:11:50.277Z,12.15
2023-05-14T06:15:38.335Z,12.31
2023-05-14T06:18:47.282Z,12.40
2023-05-14T06:22:14.308Z,12.55
2023-05-14T06:26:25.281Z,12.74
2023-05-14T06:29:28.647Z,12.91
2023-05-14T06:33:14.628Z,13.05
2023-05-14T06:36:38.513Z,13.14
2023-05-14T06:40:19.317Z,13.23
2023-05-14T06:44:32.310Z,13.38
2023-05-14T06:48:38.349Z,13.49
2023-05-14T06:52:24.688Z,13.49
2023-05-14T06:56:33.422Z,13.51
2023-05-14T07:00:06.914Z,13.49
2023-05-14T07:03:09.326Z,13.51
2023-05-14T07:06:58.419Z,13.55
2023-05-14T07:09:26.663Z,13.68
2023-05-14T07:11:55.632Z,13.76
2023-05-14T07:14:43.417Z,13.88
2023-05-14T07:17:15.239Z,14.03
2023-05-14T07:19:43.751Z,14.17
2023-05-14T07:22:11.969Z,14.25
2023-05-14T07:24:40.107Z,14.32
2023-05-14T07:27:09.051Z,14.39
2023-05-14T07:29:37.309Z,14.48
2023-05-14T07:32:05.662Z,14.52
2023-05-14T07:34:34.473Z,14.64
2023-05-14T07:37:03.481Z,14.74
2023-05-14T07:39:38.851Z,14.80
2023-05-14T07:42:07.230Z,14.91
2023-05-14T07:44:37.546Z,15.04
2023-05-14T07:47:07.671Z,15.17
2023-05-14T07:49:37.244Z,15.32
2023-05-14T07:52:05.668Z,15.35
2023-05-14T07:54:36.725Z,15.36
2023-05-14T07:57:07.497Z,15.37
2023-05-14T07:59:36.147Z,15.38
2023-05-14T08:02:04.419Z,15.44
2023-05-14T08:04:32.904Z,15.52
2023-05-14T08:07:09.727Z,15.56
2023-05-14T08:09:37.873Z,15.67
2023-05-14T08:12:10.055Z,15.82
2023-05-14T08:14:37.965Z,15.95
2023-05-14T08:17:06.477Z,16.08
2023-05-14T08:19:35.158Z,16.18
2023-05-14T08:22:05.588Z,16.34
2023-05-14T08:24:38.476Z,16.50
2023-05-14T08:27:07.363Z,16.63
2023-05-14T08:29:37.922Z,16.71
2023-05-14T08:32:22.114Z,16.73
2023-05-14T08:34:52.367Z,16.84
2023-05-14T08:37:28.534Z,17.07
2023-05-14T08:39:57.181Z,17.37
2023-05-14T08:42:35.189Z,17.60
2023-05-14T08:45:05.804Z,17.76
2023-05-14T08:47:35.303Z,17.83
2023-05-14T08:50:07.542Z,17.79
2023-05-14T08:52:44.532Z,17.89
2023-05-14T08:55:12.999Z,17.96
2023-05-14T08:57:41.183Z,18.08
2023-05-14T09:00:13.452Z,18.15
2023-05-14T09:02:42.798Z,18.33
2023-05-14T09:05:11.119Z,18.48
2023-05-14T09:07:42.891Z,18.41
2023-05-14T09:10:11.488Z,18.36
2023-05-14T09:12:40.105Z,18.47
2023-05-14T09:15:08.638Z,18.68
2023-05-14T09:17:51.667Z,18.88
2023-05-14T09:20:37.348Z,19.09
2023-05-14T09:23:27.164Z,19.28
2023-05-14T09:25:55.030Z,19.46
2023-05-14T09:29:10.572Z,19.60
2023-05-14T09:32:38.760Z,19.76
2023-05-14T09:36:01.833Z,19.84
2023-05-14T09:39:09.813Z,19.86
2023-05-14T09:42:23.393Z,19.93
2023-05-14T09:46:11.672Z,19.92
2023-05-14T09:49:40.502Z,19.92
2023-05-14T09:52:56.076Z,20.04
2023-05-14T09:56:24.775Z,20.08
2023-05-14T09:59:42.347Z,20.02
2023-05-14T10:03:06.465Z,19.91
2023-05-14T10:06:37.359Z,19.93
2023-05-14T10:09:16.937Z,20.06
2023-05-14T10:12:46.326Z,20.07
2023-05-14T10:16:26.992Z,20.10
2023-05-14T10:19:55.176Z,20.35
2023-05-14T10:23:24.693Z,20.58
2023-05-14T10:26:14.964Z,20.66
2023-05-14T10:29:24.110Z,20.65
2023-05-14T10:32:29.649Z,20.48
2023-05-14T10:35:01.703Z,20.39
2023-05-14T10:37:31.094Z,20.35
2023-05-14T10:40:06.220Z,20.15
2023-05-14T10:43:14.212Z,20.10
2023-05-14T10:45:46.049Z,19.98
2023-05-14T10:48:14.628Z,19.82
2023-05-14T10:50:43.781Z,19.86
2023-05-14T10:53:14.019Z,19.89
2023-05-14T10:55:47.344Z,19.89
2023-05-14T10:58:16.831Z,19.94
2023-05-14T11:00:49.913Z,19.96
2023-05-14T11:03:18.826Z,19.84
2023-05-14T11:05:51.274Z,19.79
2023-05-14T11:08:23.954Z,19.78
2023-05-14T11:11:11.560Z,19.70
2023-05-14T11:13:39.892Z,19.52
2023-05-14T11:16:21.563Z,19.37
2023-05-14T11:19:07.752Z,19.33
2023-05-14T11:21:37.923Z,19.31
2023-05-14T11:24:07.370Z,19.20
2023-05-14T11:26:36.587Z,19.15
2023-05-14T11:29:08.626Z,19.11
2023-05-14T11:31:36.873Z,19.08
2023-05-14T11:34:07.114Z,19.08
2023-05-14T11:36:36.747Z,19.07
2023-05-14T11:39:06.016Z,18.99
2023-05-14T11:41:34.005Z,18.94
2023-05-14T11:44:03.289Z,18.86
2023-05-14T11:46:31.670Z,18.78
2023-05-14T11:48:59.469Z,18.76
2023-05-14T11:51:27.340Z,18.72
2023-05-14T11:53:55.343Z,18.68
2023-05-14T11:56:23.493Z,18.63
2023-05-14T11:58:57.589Z,18.51
2023-05-14T12:01:25.681Z,18.44
2023-05-14T12:03:53.625Z,18.34
2023-05-14T12:06:21.820Z,18.22
2023-05-14T12:08:49.943Z,18.11
2023-05-14T12:11:31.819Z,18.02
2023-05-14T12:14:00.644Z,17.96
2023-05-14T12:16:32.728Z,17.83
2023-05-14T12:19:05.855Z,17.72
2023-05-14T12:21:36.604Z,17.62
2023-05-14T12:24:20.184Z,17.56
2023-05-14T12:26:51.824Z,17.46
2023-05-14T12:29:22.168Z,17.37
2023-05-14T12:31:51.165Z,17.28
2023-05-14T12:34:21.126Z,17.23
2023-05-14T12:36:52.911Z,17.17
2023-05-14T12:39:21.083Z,17.14
2023-05-14T12:41:49.697Z,17.12
2023-05-14T12:44:18.823Z,17.11
2023-05-14T12:46:49.933Z,17.10
2023-05-14T12:49:21.496Z,17.10
2023-05-14T12:52:22.705Z,17.09
2023-05-14T12:55:00.701Z,17.10
2023-05-14T12:57:30.629Z,17.01
2023-05-14T12:59:58.606Z,16.98
2023-05-14T13:02:29.098Z,16.90
2023-05-14T13:05:07.262Z,16.75
2023-05-14T13:07:37.317Z,16.60
2023-05-14T13:10:23.548Z,16.47
2023-05-14T13:12:54.120Z,16.26
2023-05-14T13:15:27.433Z,16.10
2023-05-14T13:18:15.110Z,15.97
2023-05-14T13:20:59.744Z,15.79
2023-05-14T13:23:33.959Z,15.68
2023-05-14T13:26:05.873Z,15.56
2023-05-14T13:29:06.352Z,15.49
2023-05-14T13:31:53.749Z,15.42
2023-05-14T13:34:37.716Z,15.37
2023-05-14T13:37:45.397Z,15.36
2023-05-14T13:40:28.436Z,15.37
2023-05-14T13:43:07.798Z,15.43
2023-05-14T13:45:53.438Z,15.47
2023-05-14T13:48:29.591Z,15.54
2023-05-14T13:54:27.489Z,15.71
2023-05-14T13:57:14.530Z,15.80
2023-05-14T13:59:47.982Z,15.84
2023-05-14T14:02:23.047Z,15.97
2023-05-14T14:04:51.667Z,16.07
2023-05-14T14:07:27.006Z,16.13
2023-05-14T14:10:41.356Z,16.17
2023-05-14T14:13:13.571Z,16.34
2023-05-14T14:15:44.187Z,16.51
2023-05-14T14:18:12.852Z,16.64
2023-05-14T14:20:59.534Z,16.71
2023-05-14T14:23:44.161Z,16.76
2023-05-14T14:26:12.667Z,16.76
2023-05-14T14:28:55.388Z,16.82
2023-05-14T14:32:22.343Z,16.89
2023-05-14T14:35:03.660Z,16.95
2023-05-14T14:37:33.759Z,16.95
2023-05-14T14:40:07.489Z,16.87
2023-05-14T14:42:37.549Z,16.78
2023-05-14T14:45:14.097Z,16.70
2023-05-14T14:47:46.028Z,16.60
2023-05-14T14:50:44.384Z,16.52
2023-05-14T14:53:14.192Z,16.45
2023-05-14T14:55:42.249Z,16.40
2023-05-14T14:58:14.330Z,16.36
2023-05-14T15:00:43.528Z,16.30
2023-05-14T15:03:19.019Z,16.21
2023-05-14T15:05:48.337Z,16.13
2023-05-14T15:08:32.569Z,16.10
2023-05-14T15:11:10.325Z,16.07
2023-05-14T15:13:40.138Z,16.04
2023-05-14T15:16:16.043Z,16.03
2023-05-14T15:19:17.462Z,16.05
2023-05-14T15:21:45.884Z,16.13
2023-05-14T15:24:13.907Z,16.19
2023-05-14T15:26:57.789Z,16.21
2023-05-14T15:30:25.329Z,16.24
2023-05-14T15:33:43.866Z,16.27
2023-05-14T15:36:39.610Z,16.28
2023-05-14T15:40:10.789Z,16.30
2023-05-14T15:43:59.609Z,16.36
2023-05-14T15:47:10.278Z,16.46
2023-05-14T15:50:57.644Z,16.51
2023-05-14T15:53:47.121Z,16.53
2023-05-14T15:57:28.860Z,16.51
2023-05-14T16:00:25.116Z,16.45
2023-05-14T16:03:56.208Z,16.38
2023-05-14T16:07:16.578Z,16.37
2023-05-14T16:10:43.314Z,16.33
2023-05-14T16:14:12.316Z,16.27
2023-05-14T16:17:41.184Z,16.19
2023-05-14T16:21:14.279Z,16.13
2023-05-14T16:24:44.702Z,16.09
2023-05-14T16:27:38.478Z,16.01
2023-05-14T16:31:13.296Z,15.94
2023-05-14T16:34:30.749Z,15.87
2023-05-14T16:37:59.569Z,15.83
2023-05-14T16:40:52.753Z,15.77
2023-05-14T16:43:52.793Z,15.71
2023-05-14T16:47:02.162Z,15.68
2023-05-14T16:49:30.134Z,15.65
2023-05-14T16:51:58.312Z,15.64
2023-05-14T16:54:26.570Z,15.63
2023-05-14T16:56:56.069Z,15.62
2023-05-14T16:59:25.080Z,15.60
2023-05-14T17:01:55.716Z,15.58
2023-05-14T17:04:26.597Z,15.56
2023-05-14T17:06:54.883Z,15.53
2023-05-14T17:09:22.696Z,15.51
2023-05-14T17:11:50.866Z,15.49
2023-05-14T17:14:18.760Z,15.47
2023-05-14T17:16:46.818Z,15.45
2023-05-14T17:19:14.856Z,15.42
2023-05-14T17:21:42.840Z,15.40
2023-05-14T17:24:10.699Z,15.39
2023-05-14T17:26:38.576Z,15.36
2023-05-14T17:29:06.415Z,15.35
2023-05-14T17:31:34.400Z,15.33
2023-05-14T17:34:02.274Z,15.32
2023-05-14T17:36:31.585Z,15.30
2023-05-14T17:38:59.421Z,15.28
2023-05-14T17:41:27.282Z,15.24
2023-05-14T17:43:55.204Z,15.22
2023-05-14T17:46:23.370Z,15.19
2023-05-14T17:48:51.324Z,15.15
2023-05-14T17:51:19.250Z,15.11
2023-05-14T17:53:47.303Z,15.08
2023-05-14T17:56:17.556Z,15.06
2023-05-14T17:58:46.198Z,15.03
2023-05-14T18:01:14.182Z,15.01
2023-05-14T18:03:42.356Z,14.98
2023-05-14T18:06:10.574Z,14.96
2023-05-14T18:08:38.397Z,14.95
2023-05-14T18:11:06.284Z,14.93
2023-05-14T18:13:34.107Z,14.91
2023-05-14T18:16:02.205Z,14.89
2023-05-14T18:18:31.612Z,14.89
2023-05-14T18:20:59.526Z,14.87
2023-05-14T18:23:27.348Z,14.87
2023-05-14T18:25:57.529Z,14.86
2023-05-14T18:28:26.442Z,14.85
2023-05-14T18:30:54.317Z,14.84
2023-05-14T18:33:22.206Z,14.83
2023-05-14T18:35:50.124Z,14.82
2023-05-14T18:38:19.325Z,14.79
2023-05-14T18:40:49.452Z,14.78
2023-05-14T18:43:18.711Z,14.76
2023-05-14T18:45:47.430Z,14.74
2023-05-14T18:48:16.380Z,14.71
2023-05-14T18:50:44.294Z,14.68
2023-05-14T18:53:12.122Z,14.67
2023-05-14T18:55:40.148Z,14.65
2023-05-14T18:58:08.282Z,14.63
2023-05-14T19:00:36.130Z,14.62
2023-05-14T19:03:04.090Z,14.61
2023-05-14T19:05:32.216Z,14.59
2023-05-14T19:08:00.886Z,14.58
2023-05-14T19:10:28.856Z,14.56
2023-05-14T19:12:57.534Z,14.54
2023-05-14T19:15:25.892Z,14.52
2023-05-14T19:17:54.172Z,14.47
2023-05-14T19:20:22.167Z,14.43
2023-05-14T19:22:50.339Z,14.41
2023-05-14T19:25:18.217Z,14.38
2023-05-14T19:27:50.498Z,14.35
2023-05-14T19:30:19.896Z,14.34
2023-05-14T19:32:47.758Z,14.33
2023-05-14T19:35:15.648Z,14.32
2023-05-14T19:37:43.497Z,14.30
2023-05-14T19:40:11.455Z,14.28
2023-05-14T19:42:39.283Z,14.24
2023-05-14T19:45:07.485Z,14.20
2023-05-14T19:47:35.334Z,14.17
2023-05-14T19:50:03.384Z,14.14
2023-05-14T19:52:31.342Z,14.10
2023-05-14T19:54:59.171Z,14.07
2023-05-14T19:57:27.055Z,14.04
2023-05-14T19:59:54.882Z,14.03
2023-05-14T20:02:22.864Z,14.02
2023-05-14T20:04:51.591Z,14.00
2023-05-14T20:07:20.156Z,13.99
2023-05-14T20:09:48.042Z,13.97
2023-05-14T20:12:16.734Z,13.95
2023-05-14T20:14:44.850Z,13.92
2023-05-14T20:17:12.964Z,13.89
2023-05-14T20:19:41.239Z,13.86
2023-05-14T20:22:09.260Z,13.84
2023-05-14T20:24:37.134Z,13.80
2023-05-14T20:27:07.530Z,13.77
2023-05-14T20:29:35.594Z,13.76
2023-05-14T20:32:03.539Z,13.74
2023-05-14T20:34:31.548Z,13.73
2023-05-14T20:36:59.382Z,13.72
2023-05-14T20:39:27.158Z,13.71
2023-05-14T20:41:55.029Z,13.69
2023-05-14T20:44:22.900Z,13.68
2023-05-14T20:46:51.132Z,13.66
2023-05-14T20:49:19.061Z,13.65
2023-05-14T20:51:46.909Z,13.63
2023-05-14T20:54:14.791Z,13.60
2023-05-14T20:56:42.718Z,13.56
2023-05-14T20:59:10.571Z,13.54
2023-05-14T21:01:38.493Z,13.51
2023-05-14T21:04:07.022Z,13.49
2023-05-14T21:06:35.312Z,13.46
2023-05-14T21:09:03.149Z,13.45
2023-05-14T21:11:31.057Z,13.43
2023-05-14T21:13:58.867Z,13.41
2023-05-14T21:16:26.911Z,13.41
2023-05-14T21:18:54.827Z,13.39
2023-05-14T21:21:23.085Z,13.39
2023-05-14T21:23:50.931Z,13.37
2023-05-14T21:26:21.579Z,13.36
2023-05-14T21:28:49.450Z,13.36
2023-05-14T21:31:17.398Z,13.34
2023-05-14T21:33:45.324Z,13.32
2023-05-14T21:36:13.419Z,13.31
2023-05-14T21:38:41.452Z,13.30
2023-05-14T21:41:09.329Z,13.28
2023-05-14T21:43:37.234Z,13.28
2023-05-14T21:46:05.161Z,13.27
2023-05-14T21:48:33.655Z,13.27
2023-05-14T21:51:02.019Z,13.26
2023-05-14T21:53:29.847Z,13.26
2023-05-14T21:55:57.798Z,13.25
2023-05-14T21:58:26.680Z,13.25
2023-05-14T22:00:54.564Z,13.24
2023-05-14T22:03:22.637Z,13.23
2023-05-14T22:05:51.539Z,13.21
2023-05-14T22:08:19.338Z,13.19
2023-05-14T22:10:47.507Z,13.17
2023-05-14T22:13:17.581Z,13.15
2023-05-14T22:15:48.449Z,13.11
2023-05-14T22:18:18.185Z,13.08
2023-05-14T22:20:47.963Z,13.06
2023-05-14T22:23:15.977Z,13.05
2023-05-14T22:25:43.769Z,13.03
2023-05-14T22:28:11.677Z,13.02
2023-05-14T22:30:39.540Z,13.00
2023-05-14T22:33:07.357Z,12.99
2023-05-14T22:35:35.374Z,12.99
2023-05-14T22:38:03.206Z,13.00
2023-05-14T22:40:31.045Z,13.01
2023-05-14T22:42:58.926Z,13.01
2023-05-14T22:45:27.028Z,13.01
2023-05-14T22:47:55.006Z,12.99
2023-05-14T22:50:22.825Z,12.99
2023-05-14T22:52:54.497Z,12.97
2023-05-14T22:55:22.401Z,12.99
2023-05-14T22:57:50.371Z,12.99
2023-05-14T23:00:18.710Z,12.99
2023-05-14T23:02:46.776Z,12.99
2023-05-14T23:05:15.006Z,13.00
2023-05-14T23:07:43.079Z,13.00
2023-05-14T23:10:11.400Z,13.00
2023-05-14T23:12:39.276Z,12.99
2023-05-14T23:15:07.608Z,12.97
2023-05-14T23:17:35.492Z,12.97
2023-05-14T23:20:05.716Z,12.96
2023-05-14T23:22:33.603Z,12.93
2023-05-14T23:25:01.512Z,12.90
2023-05-14T23:27:29.447Z,12.85
2023-05-14T23:29:57.349Z,12.82
2023-05-14T23:32:25.286Z,12.79
2023-05-14T23:34:53.171Z,12.77
2023-05-14T23:37:21.638Z,12.75
2023-05-14T23:39:49.582Z,12.74
2023-05-14T23:42:17.543Z,12.73
2023-05-14T23:44:45.450Z,12.72
2023-05-14T23:47:13.521Z,12.71
2023-05-14T23:50:27.966Z,12.70
2023-05-14T23:53:47.432Z,12.67
2023-05-14T23:57:22.376Z,12.66
